createdAt,value
2024-01-15T00:02:23.389Z,98849.30
2024-01-15T00:04:50.266Z,98850.25
2024-01-15T00:07:17.410Z,98848.45
2024-01-15T00:09:44.269Z,98849.02
2024-01-15T00:12:11.194Z,98852.86
2024-01-15T00:14:38.317Z,98854.85
2024-01-15T00:17:05.236Z,98853.77
2024-01-15T00:19:39.394Z,98848.17
2024-01-15T00:22:06.239Z,98846.34
2024-01-15T00:24:33.152Z,98842.00
2024-01-15T00:27:00.158Z,98837.02
2024-01-15T00:29:27.149Z,98832.95
2024-01-15T00:31:54.036Z,98832.86
2024-01-15T00:34:21.097Z,98831.46
2024-01-15T00:36:48.191Z,98831.78
2024-01-15T00:39:15.585Z,98832.93
2024-01-15T00:41:42.098Z,98831.30
2024-01-15T00:44:08.846Z,98828.09
2024-01-15T00:46:48.355Z,98825.72
2024-01-15T00:49:15.676Z,98823.16
2024-01-15T00:51:43.145Z,98821.55
2024-01-15T00:54:10.194Z,98816.61
2024-01-15T00:56:37.376Z,98814.80
2024-01-15T00:59:04.243Z,98812.30
2024-01-15T01:01:31.151Z,98811.69
2024-01-15T01:03:58.445Z,98810.58
2024-01-15T01:06:25.708Z,98814.61
2024-01-15T01:08:52.533Z,98815.71
2024-01-15T01:11:19.507Z,98812.33
2024-01-15T01:13:46.388Z,98810.47
2024-01-15T01:16:13.331Z,98809.15
2024-01-15T01:18:40.390Z,98808.73
2024-01-15T01:21:07.625Z,98809.48
2024-01-15T01:23:34.510Z,98808.20
2024-01-15T01:26:01.424Z,98812.12
2024-01-15T01:28:28.928Z,98807.21
2024-01-15T01:30:56.023Z,98805.18
2024-01-15T01:33:23.428Z,98806.45
2024-01-15T01:35:50.456Z,98808.58
2024-01-15T01:38:17.587Z,98805.42
2024-01-15T01:40:44.561Z,98800.38
2024-01-15T01:43:11.715Z,98802.20
2024-01-15T01:45:39.363Z,98803.90
2024-01-15T01:48:06.877Z,98802.67
2024-01-15T01:50:33.953Z,98803.53
2024-01-15T01:53:01.647Z,98807.02
2024-01-15T01:55:29.077Z,98808.27
2024-01-15T01:57:56.299Z,98807.82
2024-01-15T02:00:23.421Z,98809.00
2024-01-15T02:02:50.623Z,98811.05
2024-01-15T02:05:19.340Z,98811.56
2024-01-15T02:07:46.184Z,98809.27
2024-01-15T02:10:13.001Z,98803.80
2024-01-15T02:12:40.041Z,98803.86
2024-01-15T02:15:06.969Z,98806.02
2024-01-15T02:17:33.788Z,98803.52
2024-01-15T02:20:00.659Z,98799.42
2024-01-15T02:22:27.756Z,98802.14
2024-01-15T02:24:54.603Z,98798.93
2024-01-15T02:27:21.518Z,98800.55
2024-01-15T02:29:48.565Z,98805.97
2024-01-15T02:32:15.388Z,98802.90
2024-01-15T02:34:42.247Z,98804.32
2024-01-15T02:37:09.195Z,98804.02
2024-01-15T02:39:35.908Z,98805.39
2024-01-15T02:42:02.563Z,98805.31
2024-01-15T02:44:29.513Z,98804.85
2024-01-15T02:46:56.198Z,98806.65
2024-01-15T02:49:22.980Z,98807.07
2024-01-15T02:51:49.990Z,98805.02
2024-01-15T02:54:16.917Z,98803.36
2024-01-15T02:56:43.819Z,98802.73
2024-01-15T02:59:10.978Z,98800.51
2024-01-15T03:01:37.976Z,98804.48
2024-01-15T03:04:04.880Z,98809.73
2024-01-15T03:06:31.791Z,98813.09
2024-01-15T03:08:58.485Z,98819.34
2024-01-15T03:11:25.512Z,98821.82
2024-01-15T03:13:52.254Z,98820.52
2024-01-15T03:16:20.631Z,98824.92
2024-01-15T03:18:47.601Z,98826.71
2024-01-15T03:21:14.469Z,98826.49
2024-01-15T03:23:41.281Z,98821.79
2024-01-15T03:26:08.115Z,98823.09
2024-01-15T03:28:34.834Z,98821.45
2024-01-15T03:31:01.928Z,98824.52
2024-01-15T03:33:29.425Z,98821.67
2024-01-15T03:35:56.343Z,98819.57
2024-01-15T03:38:23.979Z,98820.57
2024-01-15T03:40:50.786Z,98821.88
2024-01-15T03:43:17.630Z,98825.32
2024-01-15T03:45:44.501Z,98828.77
2024-01-15T03:48:11.543Z,98834.64
2024-01-15T03:50:38.369Z,98832.72
2024-01-15T03:53:05.103Z,98839.27
2024-01-15T03:55:32.976Z,98836.63
2024-01-15T03:58:00.330Z,98834.04
2024-01-15T04:00:27.294Z,98837.66
2024-01-15T04:02:54.727Z,98838.91
2024-01-15T04:05:21.478Z,98844.42
2024-01-15T04:07:48.309Z,98847.52
2024-01-15T04:10:15.153Z,98848.00
2024-01-15T04:12:42.553Z,98842.46
2024-01-15T04:15:09.753Z,98840.85
2024-01-15T04:17:37.018Z,98840.11
2024-01-15T04:20:04.471Z,98839.81
2024-01-15T04:22:31.304Z,98845.80
2024-01-15T04:24:58.202Z,98844.05
2024-01-15T04:27:25.130Z,98841.28
2024-01-15T04:29:52.040Z,98842.63
2024-01-15T04:32:18.782Z,98842.64
2024-01-15T04:34:46.054Z,98843.49
2024-01-15T04:37:14.633Z,98846.73
2024-01-15T04:39:41.422Z,98851.90
2024-01-15T04:42:08.415Z,98854.55
2024-01-15T04:44:35.374Z,98860.43
2024-01-15T04:47:02.313Z,98865.95
2024-01-15T04:49:30.231Z,98865.64
2024-01-15T04:51:57.189Z,98857.14
2024-01-15T04:54:24.306Z,98849.14
2024-01-15T04:56:51.228Z,98849.71
2024-01-15T04:59:18.495Z,98854.60
2024-01-15T05:01:45.376Z,98853.01
2024-01-15T05:04:12.477Z,98848.52
2024-01-15T05:06:39.647Z,98843.85
2024-01-15T05:09:06.495Z,98843.52
2024-01-15T05:11:33.403Z,98846.30
2024-01-15T05:14:00.077Z,98851.16
2024-01-15T05:16:26.629Z,98848.30
2024-01-15T05:18:53.297Z,98850.02
2024-01-15T05:21:19.958Z,98851.66
2024-01-15T05:23:46.692Z,98853.36
2024-01-15T05:26:13.438Z,98856.64
2024-01-15T05:28:43.261Z,98855.14
2024-01-15T05:31:10.361Z,98856.02
2024-01-15T05:33:38.066Z,98860.48
2024-01-15T05:36:05.922Z,98857.95
2024-01-15T05:38:32.623Z,98856.34
2024-01-15T05:40:59.297Z,98856.34
2024-01-15T05:43:25.944Z,98858.50
2024-01-15T05:45:52.699Z,98859.66
2024-01-15T05:48:19.903Z,98858.08
2024-01-15T05:50:46.872Z,98858.90
2024-01-15T05:53:13.615Z,98859.23
2024-01-15T05:55:40.701Z,98869.94
2024-01-15T05:58:07.815Z,98872.34
2024-01-15T06:00:35.991Z,98865.58
2024-01-15T06:03:02.911Z,98867.06
2024-01-15T06:05:29.911Z,98872.27
2024-01-15T06:07:56.726Z,98869.23
2024-01-15T06:10:23.591Z,98862.86
2024-01-15T06:12:50.712Z,98863.87
2024-01-15T06:15:17.911Z,98864.45
2024-01-15T06:17:44.995Z,98862.64
2024-01-15T06:20:12.693Z,98862.90
2024-01-15T06:22:40.030Z,98867.34
2024-01-15T06:25:10.288Z,98870.98
2024-01-15T06:27:37.152Z,98871.85
2024-01-15T06:30:04.964Z,98874.92
2024-01-15T06:32:32.499Z,98876.55
2024-01-15T06:34:59.373Z,98876.33
2024-01-15T06:37:26.330Z,98877.42
2024-01-15T06:39:53.031Z,98877.05
2024-01-15T06:42:22.483Z,98880.61
2024-01-15T06:44:49.316Z,98879.71
2024-01-15T06:47:17.986Z,98874.98
2024-01-15T06:49:44.878Z,98868.63
2024-01-15T06:52:12.894Z,98871.02
2024-01-15T06:54:39.865Z,98865.88
2024-01-15T06:57:07.586Z,98863.50
2024-01-15T06:59:36.198Z,98860.45
2024-01-15T07:02:03.447Z,98860.29
2024-01-15T07:04:30.520Z,98857.67
2024-01-15T07:06:57.402Z,98858.08
2024-01-15T07:09:24.297Z,98864.67
2024-01-15T07:11:52.064Z,98869.21
2024-01-15T07:14:18.948Z,98863.59
2024-01-15T07:16:48.603Z,98867.73
2024-01-15T07:19:16.162Z,98862.74
2024-01-15T07:21:43.765Z,98864.67
2024-01-15T07:24:11.239Z,98867.86
2024-01-15T07:26:38.668Z,98872.45
2024-01-15T07:29:05.580Z,98876.51
2024-01-15T07:31:33.440Z,98880.60
2024-01-15T07:34:00.837Z,98884.67
2024-01-15T07:36:27.785Z,98884.65
2024-01-15T07:38:54.814Z,98886.05
2024-01-15T07:41:21.637Z,98878.89
2024-01-15T07:43:48.600Z,98874.77
2024-01-15T07:46:15.586Z,98876.11
2024-01-15T07:48:42.837Z,98877.12
2024-01-15T07:51:09.721Z,98879.42
2024-01-15T07:53:36.671Z,98879.61
2024-01-15T07:56:03.626Z,98874.96
2024-01-15T07:58:30.742Z,98872.14
2024-01-15T08:00:58.159Z,98867.45
2024-01-15T08:03:28.320Z,98864.64
2024-01-15T08:05:58.089Z,98866.27
2024-01-15T08:08:24.925Z,98862.87
2024-01-15T08:10:53.635Z,98861.20
2024-01-15T08:13:20.934Z,98859.20
2024-01-15T08:15:47.556Z,98856.86
2024-01-15T08:18:14.521Z,98860.27
2024-01-15T08:20:41.799Z,98865.14
2024-01-15T08:23:09.326Z,98867.00
2024-01-15T08:25:38.665Z,98864.02
2024-01-15T08:28:06.106Z,98865.44
2024-01-15T08:30:33.247Z,98870.91
2024-01-15T08:33:08.029Z,98870.62
2024-01-15T08:35:41.482Z,98868.39
2024-01-15T08:38:08.530Z,98866.43
2024-01-15T08:41:28.463Z,98869.11
2024-01-15T08:43:55.476Z,98866.91
2024-01-15T08:46:22.412Z,98871.11
2024-01-15T08:48:49.702Z,98862.19
2024-01-15T08:51:16.536Z,98864.88
2024-01-15T08:53:43.497Z,98863.05
2024-01-15T08:56:10.477Z,98866.56
2024-01-15T08:58:37.427Z,98870.71
2024-01-15T09:01:04.603Z,98873.80
2024-01-15T09:03:32.111Z,98879.17
2024-01-15T09:05:59.341Z,98884.99
2024-01-15T09:08:28.044Z,98883.95
2024-01-15T09:10:55.021Z,98883.52
2024-01-15T09:13:21.772Z,98881.25
2024-01-15T09:15:48.877Z,98874.14
2024-01-15T09:18:15.755Z,98873.81
2024-01-15T09:20:42.696Z,98876.55
2024-01-15T09:23:09.744Z,98874.10
2024-01-15T09:25:36.796Z,98877.67
2024-01-15T09:28:04.366Z,98878.52
2024-01-15T09:30:31.748Z,98872.92
2024-01-15T09:32:59.144Z,98870.08
2024-01-15T09:35:26.110Z,98865.23
2024-01-15T09:37:52.999Z,98860.30
2024-01-15T09:40:20.002Z,98857.66
2024-01-15T09:42:47.370Z,98861.26
2024-01-15T09:45:14.709Z,98864.23
2024-01-15T09:47:45.294Z,98859.46
2024-01-15T09:50:14.329Z,98850.38
2024-01-15T09:52:41.714Z,98847.04
2024-01-15T09:55:09.094Z,98837.07
2024-01-15T09:57:36.046Z,98832.62
2024-01-15T10:00:07.369Z,98829.97
2024-01-15T10:02:35.951Z,98816.36
2024-01-15T10:05:03.529Z,98813.84
2024-01-15T10:07:30.808Z,98813.39
2024-01-15T10:09:58.131Z,98809.17
2024-01-15T10:12:25.232Z,98810.47
2024-01-15T10:14:57.513Z,98812.16
2024-01-15T10:17:25.743Z,98812.02
2024-01-15T10:19:52.890Z,98812.27
2024-01-15T10:22:20.017Z,98807.38
2024-01-15T10:24:49.907Z,98804.71
2024-01-15T10:27:17.265Z,98804.41
2024-01-15T10:29:44.395Z,98805.27
2024-01-15T10:32:11.759Z,98805.25
2024-01-15T10:34:40.674Z,98805.98
2024-01-15T10:37:08.514Z,98803.47
2024-01-15T10:39:35.469Z,98800.59
2024-01-15T10:42:02.548Z,98795.50
2024-01-15T10:44:30.064Z,98794.48
2024-01-15T10:46:57.732Z,98788.40
2024-01-15T10:49:30.722Z,98786.41
2024-01-15T10:51:59.887Z,98780.93
2024-01-15T10:54:28.302Z,98773.36
2024-01-15T10:56:55.255Z,98760.54
2024-01-15T10:59:23.221Z,98751.79
2024-01-15T11:01:51.567Z,98749.00
2024-01-15T11:04:19.809Z,98743.30
2024-01-15T11:06:51.334Z,98747.30
2024-01-15T11:09:19.218Z,98747.63
2024-01-15T11:11:50.437Z,98749.10
2024-01-15T11:14:46.945Z,98749.88
2024-01-15T11:17:14.580Z,98742.86
2024-01-15T11:19:48.686Z,98743.95
2024-01-15T11:22:34.237Z,98744.72
2024-01-15T11:25:13.703Z,98752.52
2024-01-15T11:28:01.248Z,98750.08
2024-01-15T11:30:28.443Z,98744.61
2024-01-15T11:32:55.492Z,98752.29
2024-01-15T11:35:25.579Z,98755.42
2024-01-15T11:37:57.782Z,98755.88
2024-01-15T11:40:33.926Z,98748.68
2024-01-15T11:43:04.340Z,98746.55
2024-01-15T11:45:31.750Z,98745.46
2024-01-15T11:48:15.491Z,98741.33
2024-01-15T11:50:47.580Z,98737.23
2024-01-15T11:53:18.672Z,98732.88
2024-01-15T11:55:46.458Z,98728.30
2024-01-15T11:58:13.531Z,98726.48
2024-01-15T12:00:45.227Z,98724.55
2024-01-15T12:03:12.493Z,98718.15
2024-01-15T12:05:39.985Z,98716.73
2024-01-15T12:08:16.361Z,98715.20
2024-01-15T12:10:43.679Z,98707.23
2024-01-15T12:13:15.150Z,98705.14
2024-01-15T12:15:43.508Z,98701.20
2024-01-15T12:18:12.341Z,98699.64
2024-01-15T12:20:40.370Z,98703.59
2024-01-15T12:23:08.980Z,98700.33
2024-01-15T12:25:36.812Z,98696.16
2024-01-15T12:28:04.474Z,98692.27
2024-01-15T12:30:34.400Z,98693.57
2024-01-15T12:33:05.731Z,98692.47
2024-01-15T12:35:34.115Z,98695.55
2024-01-15T12:38:03.129Z,98689.48
2024-01-15T12:40:31.188Z,98689.34
2024-01-15T12:42:58.085Z,98683.88
2024-01-15T12:45:24.923Z,98680.05
2024-01-15T12:47:52.050Z,98675.86
2024-01-15T12:50:24.800Z,98672.88
2024-01-15T12:52:52.161Z,98668.16
2024-01-15T12:55:19.077Z,98672.46
2024-01-15T12:57:53.207Z,98671.44
2024-01-15T13:00:20.679Z,98676.05
2024-01-15T13:02:48.027Z,98668.85
2024-01-15T13:05:15.951Z,98666.88
2024-01-15T13:07:43.993Z,98663.84
2024-01-15T13:10:12.516Z,98664.98
2024-01-15T13:12:41.186Z,98659.96
2024-01-15T13:15:12.507Z,98656.64
2024-01-15T13:17:42.811Z,98645.31
2024-01-15T13:20:11.598Z,98648.52
2024-01-15T13:22:40.596Z,98654.14
2024-01-15T13:25:08.468Z,98652.88
2024-01-15T13:27:39.319Z,98648.99
2024-01-15T13:30:08.804Z,98640.45
2024-01-15T13:32:36.505Z,98645.30
2024-01-15T13:35:07.678Z,98651.65
2024-01-15T13:37:38.457Z,98648.02
2024-01-15T13:40:07.977Z,98647.35
2024-01-15T13:42:35.054Z,98645.30
2024-01-15T13:45:02.086Z,98648.83
2024-01-15T13:47:29.418Z,98646.90
2024-01-15T13:49:56.343Z,98647.91
2024-01-15T13:52:23.390Z,98649.92
2024-01-15T13:54:51.193Z,98651.77
2024-01-15T13:57:19.879Z,98649.04
2024-01-15T13:59:46.767Z,98642.13
2024-01-15T14:02:16.196Z,98643.23
2024-01-15T14:04:45.434Z,98644.23
2024-01-15T14:07:13.150Z,98639.02
2024-01-15T14:09:40.122Z,98644.52
2024-01-15T14:12:07.862Z,98642.05
2024-01-15T14:14:34.961Z,98641.89
2024-01-15T14:17:02.166Z,98639.13
2024-01-15T14:19:29.705Z,98642.39
2024-01-15T14:21:56.957Z,98644.30
2024-01-15T14:24:24.273Z,98650.75
2024-01-15T14:26:51.371Z,98656.15
2024-01-15T14:29:21.209Z,98658.76
2024-01-15T14:31:48.596Z,98658.91
2024-01-15T14:34:16.869Z,98659.29
2024-01-15T14:36:44.238Z,98660.64
2024-01-15T14:39:11.446Z,98658.45
2024-01-15T14:41:38.379Z,98651.18
2024-01-15T14:44:05.626Z,98649.06
2024-01-15T14:46:32.791Z,98652.14
2024-01-15T14:49:00.077Z,98649.77
2024-01-15T14:51:27.331Z,98649.17
2024-01-15T14:53:55.355Z,98645.18
2024-01-15T14:56:22.341Z,98638.67
2024-01-15T14:58:49.692Z,98631.23
2024-01-15T15:01:17.176Z,98637.16
2024-01-15T15:03:45.002Z,98638.95
2024-01-15T15:06:13.172Z,98638.00
2024-01-15T15:08:42.241Z,98641.33
2024-01-15T15:11:11.691Z,98647.80
2024-01-15T15:13:45.086Z,98653.84
2024-01-15T15:16:13.822Z,98648.02
2024-01-15T15:18:43.645Z,98648.89
2024-01-15T15:21:11.983Z,98646.15
2024-01-15T15:23:39.889Z,98646.92
2024-01-15T15:26:06.731Z,98646.84
2024-01-15T15:28:37.065Z,98641.83
2024-01-15T15:31:13.830Z,98637.14
2024-01-15T15:33:41.275Z,98640.14
2024-01-15T15:36:08.547Z,98632.00
2024-01-15T15:38:35.439Z,98633.27
2024-01-15T15:41:02.744Z,98634.85
2024-01-15T15:43:30.103Z,98628.98
2024-01-15T15:46:00.993Z,98626.20
2024-01-15T15:48:28.334Z,98623.54
2024-01-15T15:50:56.277Z,98621.92
2024-01-15T15:53:23.545Z,98619.84
2024-01-15T15:55:50.600Z,98621.61
2024-01-15T15:58:17.620Z,98618.18
2024-01-15T16:00:44.991Z,98613.89
2024-01-15T16:03:12.175Z,98604.59
2024-01-15T16:05:45.725Z,98600.40
2024-01-15T16:08:19.460Z,98596.16
2024-01-15T16:10:47.012Z,98591.27
2024-01-15T16:13:14.465Z,98589.54
2024-01-15T16:15:41.371Z,98584.95
2024-01-15T16:23:18.987Z,98576.41
2024-01-15T16:23:33.411Z,98573.35
2024-01-15T16:24:08.115Z,98574.64
2024-01-15T16:26:31.429Z,98573.60
2024-01-15T16:29:01.677Z,98577.35
2024-01-15T16:31:30.203Z,98574.33
2024-01-15T16:34:02.085Z,98574.67
2024-01-15T16:36:32.955Z,98573.09
2024-01-15T16:39:00.036Z,98569.38
2024-01-15T16:41:27.173Z,98561.58
2024-01-15T16:43:54.371Z,98564.70
2024-01-15T16:46:21.363Z,98565.48
2024-01-15T16:48:50.960Z,98567.77
2024-01-15T16:51:20.039Z,98563.20
2024-01-15T16:53:47.168Z,98559.42
2024-01-15T16:56:15.331Z,98557.95
2024-01-15T16:58:42.389Z,98561.20
2024-01-15T17:01:09.605Z,98563.34
2024-01-15T17:03:36.884Z,98562.83
2024-01-15T17:06:05.084Z,98567.52
2024-01-15T17:08:32.575Z,98565.55
2024-01-15T17:11:03.657Z,98560.98
2024-01-15T17:13:30.823Z,98552.92
2024-01-15T17:15:59.406Z,98546.77
2024-01-15T17:18:26.514Z,98542.76
2024-01-15T17:20:54.404Z,98540.64
2024-01-15T17:23:21.637Z,98537.77
2024-01-15T17:25:48.887Z,98536.42
2024-01-15T17:28:15.778Z,98540.85
2024-01-15T17:30:43.229Z,98537.63
2024-01-15T17:33:10.202Z,98531.34
2024-01-15T17:35:37.269Z,98533.37
2024-01-15T17:38:05.008Z,98531.39
2024-01-15T17:40:32.139Z,98526.99
2024-01-15T17:42:59.281Z,98517.02
2024-01-15T17:45:27.428Z,98513.94
2024-01-15T17:47:54.561Z,98507.36
2024-01-15T17:50:22.005Z,98502.09
2024-01-15T17:52:49.104Z,98496.03
2024-01-15T17:55:16.790Z,98497.91
2024-01-15T17:57:43.986Z,98497.38
2024-01-15T18:00:11.813Z,98493.06
2024-01-15T18:02:39.059Z,98493.89
2024-01-15T18:05:06.784Z,98487.96
2024-01-15T18:07:34.194Z,98484.33
2024-01-15T18:10:01.344Z,98482.09
2024-01-15T18:12:28.688Z,98482.95
2024-01-15T18:14:55.920Z,98484.29
2024-01-15T18:17:23.985Z,98485.94
2024-01-15T18:19:51.153Z,98489.52
2024-01-15T18:22:19.218Z,98489.57
2024-01-15T18:24:46.787Z,98488.33
2024-01-15T18:27:13.930Z,98490.57
2024-01-15T18:29:40.969Z,98495.05
2024-01-15T18:32:08.160Z,98495.08
2024-01-15T18:34:35.435Z,98488.70
2024-01-15T18:37:05.196Z,98492.08
2024-01-15T18:39:32.144Z,98490.14
2024-01-15T18:41:59.422Z,98488.11
2024-01-15T18:44:26.355Z,98483.06
2024-01-15T18:46:53.373Z,98479.94
2024-01-15T18:49:21.612Z,98474.50
2024-01-15T18:51:53.748Z,98470.48
2024-01-15T18:54:22.110Z,98470.93
2024-01-15T18:56:49.144Z,98469.22
2024-01-15T18:59:16.475Z,98464.13
2024-01-15T19:01:44.392Z,98456.67
2024-01-15T19:04:12.521Z,98459.11
2024-01-15T19:06:41.935Z,98454.76
2024-01-15T19:09:15.161Z,98449.86
2024-01-15T19:11:42.341Z,98447.88
2024-01-15T19:14:09.564Z,98443.45
2024-01-15T19:16:36.708Z,98441.41
2024-01-15T19:19:03.894Z,98433.64
2024-01-15T19:21:33.780Z,98432.23
2024-01-15T19:24:03.075Z,98426.36
2024-01-15T19:26:30.474Z,98431.27
2024-01-15T19:28:57.583Z,98430.52
2024-01-15T19:31:30.105Z,98431.35
2024-01-15T19:34:00.702Z,98432.46
2024-01-15T19:36:28.131Z,98439.67
2024-01-15T19:38:55.381Z,98441.45
2024-01-15T19:41:34.042Z,98443.33
2024-01-15T19:44:06.728Z,98440.69
2024-01-15T19:46:34.904Z,98441.02
2024-01-15T19:49:03.734Z,98438.06
2024-01-15T19:51:31.014Z,98437.27
2024-01-15T19:53:58.047Z,98436.73
2024-01-15T19:56:25.659Z,98435.95
2024-01-15T19:58:52.751Z,98440.15
2024-01-15T20:01:19.711Z,98438.23
2024-01-15T20:03:47.922Z,98454.84
2024-01-15T20:06:15.465Z,98451.22
2024-01-15T20:08:44.858Z,98444.70
2024-01-15T20:11:11.945Z,98450.17
2024-01-15T20:13:40.466Z,98447.20
2024-01-15T20:16:14.112Z,98444.20
2024-01-15T20:18:41.846Z,98445.48
2024-01-15T20:21:09.372Z,98444.05
2024-01-15T20:23:43.144Z,98439.77
2024-01-15T20:26:17.873Z,98441.30
2024-01-15T20:28:47.891Z,98436.17
2024-01-15T20:31:14.992Z,98432.05
2024-01-15T20:33:44.106Z,98436.35
2024-01-15T20:36:12.839Z,98436.85
2024-01-15T20:38:40.161Z,98434.73
2024-01-15T20:41:07.739Z,98431.21
2024-01-15T20:51:30.161Z,98427.70
2024-01-15T20:53:58.255Z,98422.25
2024-01-15T20:56:25.420Z,98421.74
2024-01-15T20:58:52.693Z,98416.50
2024-01-15T21:01:25.437Z,98414.46
2024-01-15T21:03:58.633Z,98415.43
2024-01-15T21:06:28.209Z,98408.29
2024-01-15T21:08:55.283Z,98404.27
2024-01-15T21:11:31.793Z,98402.77
2024-01-15T21:14:01.213Z,98398.48
2024-01-15T21:16:28.208Z,98391.10
2024-01-15T21:18:55.306Z,98387.10
2024-01-15T21:21:24.592Z,98383.76
2024-01-15T21:23:57.028Z,98381.23
2024-01-15T21:26:40.265Z,98386.42
2024-01-15T21:29:07.283Z,98390.83
2024-01-15T21:31:38.649Z,98391.52
2024-01-15T21:34:05.670Z,98393.90
2024-01-15T21:36:32.850Z,98392.81
2024-01-15T21:38:59.904Z,98393.50
2024-01-15T21:41:26.901Z,98396.42
2024-01-15T21:43:53.992Z,98392.48
2024-01-15T21:46:20.940Z,98382.70
2024-01-15T21:48:48.423Z,98385.83
2024-01-15T21:51:18.111Z,98383.83
2024-01-15T21:53:45.073Z,98379.42
2024-01-15T21:56:13.082Z,98382.48
2024-01-15T21:58:40.168Z,98377.41
2024-01-15T22:01:09.561Z,98372.64
2024-01-15T22:03:36.847Z,98376.48
2024-01-15T22:06:04.595Z,98369.90
2024-01-15T22:08:31.581Z,98370.21
2024-01-15T22:10:58.291Z,98378.89
2024-01-15T22:13:25.228Z,98388.98
2024-01-15T22:15:52.479Z,98398.38
2024-01-15T22:18:19.459Z,98387.13
2024-01-15T22:20:46.683Z,98377.70
2024-01-15T22:23:13.662Z,98377.98
2024-01-15T22:25:40.895Z,98380.70
2024-01-15T22:28:07.711Z,98378.70
2024-01-15T22:30:34.555Z,98382.86
2024-01-15T22:33:01.406Z,98395.14
2024-01-15T22:35:28.661Z,98397.40
2024-01-15T22:37:55.731Z,98402.16
2024-01-15T22:40:22.710Z,98413.34
2024-01-15T22:42:49.724Z,98416.23
2024-01-15T22:45:17.570Z,98414.52
2024-01-15T22:47:44.750Z,98410.20
2024-01-15T22:50:22.785Z,98410.63
2024-01-15T22:52:49.650Z,98412.79
2024-01-15T22:55:16.718Z,98413.23
2024-01-15T22:57:43.662Z,98409.90
2024-01-15T23:00:20.509Z,98402.73
2024-01-15T23:02:49.190Z,98397.02
2024-01-15T23:05:18.718Z,98387.64
2024-01-15T23:07:46.589Z,98379.78
2024-01-15T23:10:14.763Z,98376.20
2024-01-15T23:12:41.617Z,98371.80
2024-01-15T23:15:23.501Z,98369.34
2024-01-15T23:17:54.523Z,98367.52
2024-01-15T23:20:21.954Z,98365.23
2024-01-15T23:22:52.747Z,98358.77
2024-01-15T23:25:19.584Z,98348.58
2024-01-15T23:27:46.524Z,98345.75
2024-01-15T23:30:13.465Z,98351.80
2024-01-15T23:32:40.714Z,98354.06
2024-01-15T23:35:08.101Z,98356.55
2024-01-15T23:37:36.145Z,98349.79
2024-01-15T23:40:07.193Z,98351.81
2024-01-15T23:42:34.243Z,98355.02
2024-01-15T23:45:01.156Z,98358.48
2024-01-15T23:47:28.007Z,98363.85
2024-01-15T23:49:55.082Z,98367.52
2024-01-15T23:52:21.836Z,98372.02
2024-01-15T23:54:48.459Z,98368.89
2024-01-15T23:57:15.395Z,98367.20
2024-01-15T23:59:42.358Z,98369.89
